Terminal Aerodrome Forecast
Issued by NWS

Home | Current Version | Previous Version | Text Only | Print | Product List | Glossary On
Versions: 1 2 3 4 5 6 7 8 9 10 11 12 13 14 15 16 17
000
FTUS44 KEPZ 211100
TAFTCS
TAF
KTCS 211130Z 2112/2212 07008KT P6SM VCSH BKN050 OVC090
     FM211800 12009KT P6SM VCTS SCT050CB SCT100 BKN200
      TEMPO 2200/2204 VRB25G35KT 3SM TSRA BKN040CB OVC080
     FM220600 16005KT P6SM VCSH BKN040 OVC070=

USA.gov is the U.S. government's official web portal to all federal, state and local government web resources and services.